sensor_id;sensor_type;location;lat;lon;timestamp;temperature;humidity
820;DHT22;392;48.838;2.322;2024-03-08T00:00:43;8.90;28.90
820;DHT22;392;48.838;2.322;2024-03-08T00:03:11;8.80;29.10
820;DHT22;392;48.838;2.322;2024-03-08T00:05:38;8.90;29.20
820;DHT22;392;48.838;2.322;2024-03-08T00:08:06;8.90;29.20
820;DHT22;392;48.838;2.322;2024-03-08T00:10:35;8.90;29.10
820;DHT22;392;48.838;2.322;2024-03-08T00:13:04;8.90;29.20
820;DHT22;392;48.838;2.322;2024-03-08T00:15:32;8.90;29.20
820;DHT22;392;48.838;2.322;2024-03-08T00:18:02;8.80;29.10
820;DHT22;392;48.838;2.322;2024-03-08T00:20:29;8.80;29.10
820;DHT22;392;48.838;2.322;2024-03-08T00:22:56;8.70;29.10
820;DHT22;392;48.838;2.322;2024-03-08T00:25:24;8.70;29.40
820;DHT22;392;48.838;2.322;2024-03-08T00:27:51;8.70;29.40
820;DHT22;392;48.838;2.322;2024-03-08T00:30:21;8.70;29.30
820;DHT22;392;48.838;2.322;2024-03-08T00:32:51;8.70;29.50
820;DHT22;392;48.838;2.322;2024-03-08T00:35:19;8.70;29.50
820;DHT22;392;48.838;2.322;2024-03-08T00:37:46;8.70;29.50
820;DHT22;392;48.838;2.322;2024-03-08T00:40:14;8.60;29.70
820;DHT22;392;48.838;2.322;2024-03-08T00:42:41;8.70;29.80
820;DHT22;392;48.838;2.322;2024-03-08T00:45:10;8.60;29.80
820;DHT22;392;48.838;2.322;2024-03-08T00:47:37;8.60;30.10
820;DHT22;392;48.838;2.322;2024-03-08T00:50:05;8.60;30.20
820;DHT22;392;48.838;2.322;2024-03-08T00:52:35;8.50;30.40
820;DHT22;392;48.838;2.322;2024-03-08T00:55:03;8.60;30.60
820;DHT22;392;48.838;2.322;2024-03-08T00:57:30;8.50;30.40
820;DHT22;392;48.838;2.322;2024-03-08T00:59:58;8.50;30.80
820;DHT22;392;48.838;2.322;2024-03-08T01:02:25;8.50;30.90
820;DHT22;392;48.838;2.322;2024-03-08T01:04:53;8.50;31.10
820;DHT22;392;48.838;2.322;2024-03-08T01:07:20;8.50;31.30
820;DHT22;392;48.838;2.322;2024-03-08T01:09:48;8.50;31.30
820;DHT22;392;48.838;2.322;2024-03-08T01:12:15;8.50;31.50
820;DHT22;392;48.838;2.322;2024-03-08T01:14:43;8.50;31.60
820;DHT22;392;48.838;2.322;2024-03-08T01:17:10;8.50;31.40
820;DHT22;392;48.838;2.322;2024-03-08T01:19:37;8.50;31.40
820;DHT22;392;48.838;2.322;2024-03-08T01:22:05;8.40;31.50
820;DHT22;392;48.838;2.322;2024-03-08T01:24:32;8.40;31.70
820;DHT22;392;48.838;2.322;2024-03-08T01:27:02;8.40;32.00
820;DHT22;392;48.838;2.322;2024-03-08T01:29:29;8.40;32.00
820;DHT22;392;48.838;2.322;2024-03-08T01:31:57;8.40;32.30
820;DHT22;392;48.838;2.322;2024-03-08T01:34:27;8.30;32.40
820;DHT22;392;48.838;2.322;2024-03-08T01:36:55;8.30;32.80
820;DHT22;392;48.838;2.322;2024-03-08T01:39:23;8.30;32.90
820;DHT22;392;48.838;2.322;2024-03-08T01:41:50;8.30;32.90
820;DHT22;392;48.838;2.322;2024-03-08T01:44:18;8.30;33.30
820;DHT22;392;48.838;2.322;2024-03-08T01:46:46;8.20;33.40
820;DHT22;392;48.838;2.322;2024-03-08T01:49:14;8.10;33.60
820;DHT22;392;48.838;2.322;2024-03-08T01:51:44;8.10;34.00
820;DHT22;392;48.838;2.322;2024-03-08T01:54:11;8.10;34.40
820;DHT22;392;48.838;2.322;2024-03-08T01:56:38;8.10;34.50
820;DHT22;392;48.838;2.322;2024-03-08T01:59:06;8.10;34.80
820;DHT22;392;48.838;2.322;2024-03-08T02:01:35;8.00;34.90
820;DHT22;392;48.838;2.322;2024-03-08T02:04:03;8.00;35.10
820;DHT22;392;48.838;2.322;2024-03-08T02:06:33;8.10;35.20
820;DHT22;392;48.838;2.322;2024-03-08T02:09:00;8.10;35.10
820;DHT22;392;48.838;2.322;2024-03-08T02:11:31;8.10;35.20
820;DHT22;392;48.838;2.322;2024-03-08T02:13:58;8.00;35.20
820;DHT22;392;48.838;2.322;2024-03-08T02:16:26;8.00;35.30
820;DHT22;392;48.838;2.322;2024-03-08T02:18:54;7.90;35.70
820;DHT22;392;48.838;2.322;2024-03-08T02:21:23;7.90;35.70
820;DHT22;392;48.838;2.322;2024-03-08T02:23:50;7.90;35.80
820;DHT22;392;48.838;2.322;2024-03-08T02:26:18;7.90;36.00
820;DHT22;392;48.838;2.322;2024-03-08T02:28:46;7.90;36.10
820;DHT22;392;48.838;2.322;2024-03-08T02:31:13;7.90;36.30
820;DHT22;392;48.838;2.322;2024-03-08T02:33:40;7.80;36.60
820;DHT22;392;48.838;2.322;2024-03-08T02:36:08;7.90;36.90
820;DHT22;392;48.838;2.322;2024-03-08T02:38:36;7.90;36.70
820;DHT22;392;48.838;2.322;2024-03-08T02:41:04;7.90;36.50
820;DHT22;392;48.838;2.322;2024-03-08T02:43:31;7.80;36.40
820;DHT22;392;48.838;2.322;2024-03-08T02:45:59;7.80;36.90
820;DHT22;392;48.838;2.322;2024-03-08T02:48:27;7.70;37.10
820;DHT22;392;48.838;2.322;2024-03-08T02:50:54;7.80;37.40
820;DHT22;392;48.838;2.322;2024-03-08T02:53:21;7.70;37.00
820;DHT22;392;48.838;2.322;2024-03-08T02:55:51;7.70;37.50
820;DHT22;392;48.838;2.322;2024-03-08T02:58:18;7.80;37.80
820;DHT22;392;48.838;2.322;2024-03-08T03:00:45;7.80;38.10
820;DHT22;392;48.838;2.322;2024-03-08T03:03:13;7.80;37.50
820;DHT22;392;48.838;2.322;2024-03-08T03:05:40;7.80;37.30
820;DHT22;392;48.838;2.322;2024-03-08T03:08:07;7.80;37.50
820;DHT22;392;48.838;2.322;2024-03-08T03:10:35;7.80;37.30
820;DHT22;392;48.838;2.322;2024-03-08T03:13:04;7.80;37.10
820;DHT22;392;48.838;2.322;2024-03-08T03:15:32;7.80;37.10
820;DHT22;392;48.838;2.322;2024-03-08T03:17:59;7.70;37.00
820;DHT22;392;48.838;2.322;2024-03-08T03:20:27;7.70;37.50
820;DHT22;392;48.838;2.322;2024-03-08T03:22:58;7.60;37.90
820;DHT22;392;48.838;2.322;2024-03-08T03:25:27;7.60;37.90
820;DHT22;392;48.838;2.322;2024-03-08T03:28:00;7.60;37.90
820;DHT22;392;48.838;2.322;2024-03-08T03:30:29;7.60;37.90
820;DHT22;392;48.838;2.322;2024-03-08T03:32:59;7.60;37.90
820;DHT22;392;48.838;2.322;2024-03-08T03:35:28;7.60;37.90
820;DHT22;392;48.838;2.322;2024-03-08T03:37:56;7.50;37.80
820;DHT22;392;48.838;2.322;2024-03-08T03:40:32;7.50;37.80
820;DHT22;392;48.838;2.322;2024-03-08T03:43:00;7.50;37.80
820;DHT22;392;48.838;2.322;2024-03-08T03:45:29;7.50;38.00
820;DHT22;392;48.838;2.322;2024-03-08T03:48:01;7.50;38.50
820;DHT22;392;48.838;2.322;2024-03-08T03:50:29;7.50;38.60
820;DHT22;392;48.838;2.322;2024-03-08T03:53:00;7.50;38.60
820;DHT22;392;48.838;2.322;2024-03-08T03:55:27;7.50;38.30
820;DHT22;392;48.838;2.322;2024-03-08T03:57:55;7.50;38.10
820;DHT22;392;48.838;2.322;2024-03-08T04:00:24;7.40;38.10
820;DHT22;392;48.838;2.322;2024-03-08T04:02:54;7.40;38.70
820;DHT22;392;48.838;2.322;2024-03-08T04:05:24;7.40;38.80
820;DHT22;392;48.838;2.322;2024-03-08T04:07:52;7.40;38.80
820;DHT22;392;48.838;2.322;2024-03-08T04:10:19;7.40;38.80
820;DHT22;392;48.838;2.322;2024-03-08T04:12:46;7.40;38.80
820;DHT22;392;48.838;2.322;2024-03-08T04:15:14;7.40;39.10
820;DHT22;392;48.838;2.322;2024-03-08T04:17:41;7.30;39.00
820;DHT22;392;48.838;2.322;2024-03-08T04:20:10;7.30;39.20
820;DHT22;392;48.838;2.322;2024-03-08T04:22:38;7.30;39.00
820;DHT22;392;48.838;2.322;2024-03-08T04:25:06;7.30;39.10
820;DHT22;392;48.838;2.322;2024-03-08T04:27:36;7.30;39.20
820;DHT22;392;48.838;2.322;2024-03-08T04:30:04;7.30;38.90
820;DHT22;392;48.838;2.322;2024-03-08T04:32:33;7.30;39.00
820;DHT22;392;48.838;2.322;2024-03-08T04:35:00;7.20;39.10
820;DHT22;392;48.838;2.322;2024-03-08T04:37:30;7.30;39.30
820;DHT22;392;48.838;2.322;2024-03-08T04:39:58;7.20;39.40
820;DHT22;392;48.838;2.322;2024-03-08T04:42:25;7.20;39.40
820;DHT22;392;48.838;2.322;2024-03-08T04:44:54;7.20;39.60
820;DHT22;392;48.838;2.322;2024-03-08T04:47:21;7.20;39.30
820;DHT22;392;48.838;2.322;2024-03-08T04:49:48;7.10;39.90
820;DHT22;392;48.838;2.322;2024-03-08T04:52:16;7.20;40.30
820;DHT22;392;48.838;2.322;2024-03-08T04:54:44;7.20;40.30
820;DHT22;392;48.838;2.322;2024-03-08T04:57:12;7.10;40.20
820;DHT22;392;48.838;2.322;2024-03-08T04:59:39;7.20;39.90
820;DHT22;392;48.838;2.322;2024-03-08T05:02:06;7.30;39.80
820;DHT22;392;48.838;2.322;2024-03-08T05:04:34;7.30;39.50
820;DHT22;392;48.838;2.322;2024-03-08T05:07:01;7.30;39.20
820;DHT22;392;48.838;2.322;2024-03-08T05:09:29;7.20;39.00
820;DHT22;392;48.838;2.322;2024-03-08T05:11:59;7.20;39.10
820;DHT22;392;48.838;2.322;2024-03-08T05:14:27;7.20;39.10
820;DHT22;392;48.838;2.322;2024-03-08T05:16:55;7.20;39.20
820;DHT22;392;48.838;2.322;2024-03-08T05:19:22;7.20;39.10
820;DHT22;392;48.838;2.322;2024-03-08T05:21:50;7.10;39.30
820;DHT22;392;48.838;2.322;2024-03-08T05:24:17;7.10;39.70
820;DHT22;392;48.838;2.322;2024-03-08T05:26:45;7.10;39.90
820;DHT22;392;48.838;2.322;2024-03-08T05:29:14;7.10;40.00
820;DHT22;392;48.838;2.322;2024-03-08T05:31:46;7.10;39.80
820;DHT22;392;48.838;2.322;2024-03-08T05:34:15;7.00;40.40
820;DHT22;392;48.838;2.322;2024-03-08T05:36:42;7.00;40.00
820;DHT22;392;48.838;2.322;2024-03-08T05:39:10;7.00;40.20
820;DHT22;392;48.838;2.322;2024-03-08T05:41:37;6.90;40.50
820;DHT22;392;48.838;2.322;2024-03-08T05:44:06;6.90;40.60
820;DHT22;392;48.838;2.322;2024-03-08T05:46:34;6.90;40.50
820;DHT22;392;48.838;2.322;2024-03-08T05:49:02;6.90;40.50
820;DHT22;392;48.838;2.322;2024-03-08T05:51:31;6.90;40.50
820;DHT22;392;48.838;2.322;2024-03-08T05:54:00;6.90;40.60
820;DHT22;392;48.838;2.322;2024-03-08T05:56:28;6.90;41.10
820;DHT22;392;48.838;2.322;2024-03-08T05:58:56;6.90;41.50
820;DHT22;392;48.838;2.322;2024-03-08T06:01:24;6.90;41.10
820;DHT22;392;48.838;2.322;2024-03-08T06:03:53;6.90;41.30
820;DHT22;392;48.838;2.322;2024-03-08T06:06:21;6.90;41.40
820;DHT22;392;48.838;2.322;2024-03-08T06:08:49;6.90;41.10
820;DHT22;392;48.838;2.322;2024-03-08T06:11:17;6.80;41.00
820;DHT22;392;48.838;2.322;2024-03-08T06:13:46;6.80;40.80
820;DHT22;392;48.838;2.322;2024-03-08T06:16:13;6.80;41.00
820;DHT22;392;48.838;2.322;2024-03-08T06:18:41;6.70;41.00
820;DHT22;392;48.838;2.322;2024-03-08T06:21:09;6.70;41.40
820;DHT22;392;48.838;2.322;2024-03-08T06:23:38;6.70;41.80
820;DHT22;392;48.838;2.322;2024-03-08T06:26:06;6.70;42.00
820;DHT22;392;48.838;2.322;2024-03-08T06:28:33;6.70;42.00
820;DHT22;392;48.838;2.322;2024-03-08T06:31:02;6.70;42.10
820;DHT22;392;48.838;2.322;2024-03-08T06:33:29;6.70;41.90
820;DHT22;392;48.838;2.322;2024-03-08T06:35:58;6.80;42.10
820;DHT22;392;48.838;2.322;2024-03-08T06:38:26;6.80;42.10
820;DHT22;392;48.838;2.322;2024-03-08T06:40:53;6.90;42.20
820;DHT22;392;48.838;2.322;2024-03-08T06:43:21;6.90;41.90
820;DHT22;392;48.838;2.322;2024-03-08T06:45:51;7.00;41.40
820;DHT22;392;48.838;2.322;2024-03-08T06:48:18;7.00;40.80
820;DHT22;392;48.838;2.322;2024-03-08T06:50:47;7.10;40.30
820;DHT22;392;48.838;2.322;2024-03-08T06:53:14;7.00;40.00
820;DHT22;392;48.838;2.322;2024-03-08T06:55:46;7.00;40.00
820;DHT22;392;48.838;2.322;2024-03-08T06:58:13;7.00;40.30
820;DHT22;392;48.838;2.322;2024-03-08T07:00:41;7.10;40.00
820;DHT22;392;48.838;2.322;2024-03-08T07:03:09;7.10;39.70
820;DHT22;392;48.838;2.322;2024-03-08T07:05:38;7.20;39.60
820;DHT22;392;48.838;2.322;2024-03-08T07:08:06;7.20;38.70
820;DHT22;392;48.838;2.322;2024-03-08T07:10:33;7.20;38.40
820;DHT22;392;48.838;2.322;2024-03-08T07:13:02;7.10;38.00
820;DHT22;392;48.838;2.322;2024-03-08T07:15:30;7.10;38.70
820;DHT22;392;48.838;2.322;2024-03-08T07:17:58;7.10;39.10
820;DHT22;392;48.838;2.322;2024-03-08T07:20:25;7.10;39.20
820;DHT22;392;48.838;2.322;2024-03-08T07:22:54;7.10;38.70
820;DHT22;392;48.838;2.322;2024-03-08T07:25:22;7.10;38.80
820;DHT22;392;48.838;2.322;2024-03-08T07:27:50;7.00;39.10
820;DHT22;392;48.838;2.322;2024-03-08T07:30:20;7.10;39.10
820;DHT22;392;48.838;2.322;2024-03-08T07:33:06;7.10;39.20
820;DHT22;392;48.838;2.322;2024-03-08T07:35:37;7.20;38.80
820;DHT22;392;48.838;2.322;2024-03-08T07:38:05;7.30;38.70
820;DHT22;392;48.838;2.322;2024-03-08T07:40:35;7.30;38.50
820;DHT22;392;48.838;2.322;2024-03-08T07:43:02;7.30;38.30
820;DHT22;392;48.838;2.322;2024-03-08T07:45:31;7.40;37.70
820;DHT22;392;48.838;2.322;2024-03-08T07:47:58;7.40;37.70
820;DHT22;392;48.838;2.322;2024-03-08T07:50:26;7.50;38.00
820;DHT22;392;48.838;2.322;2024-03-08T07:52:53;7.60;37.80
820;DHT22;392;48.838;2.322;2024-03-08T07:55:20;7.60;36.70
820;DHT22;392;48.838;2.322;2024-03-08T07:57:49;7.70;36.60
820;DHT22;392;48.838;2.322;2024-03-08T08:00:17;7.70;35.90
820;DHT22;392;48.838;2.322;2024-03-08T08:02:46;7.70;35.70
820;DHT22;392;48.838;2.322;2024-03-08T08:05:15;7.80;36.30
820;DHT22;392;48.838;2.322;2024-03-08T08:07:44;7.90;35.70
820;DHT22;392;48.838;2.322;2024-03-08T08:10:12;8.00;35.50
820;DHT22;392;48.838;2.322;2024-03-08T08:12:44;8.10;34.90
820;DHT22;392;48.838;2.322;2024-03-08T08:15:13;8.10;34.30
820;DHT22;392;48.838;2.322;2024-03-08T08:17:41;8.10;34.30
820;DHT22;392;48.838;2.322;2024-03-08T08:20:10;8.10;34.30
820;DHT22;392;48.838;2.322;2024-03-08T08:22:39;8.20;34.20
820;DHT22;392;48.838;2.322;2024-03-08T08:25:07;8.30;34.20
820;DHT22;392;48.838;2.322;2024-03-08T08:27:34;8.40;33.60
820;DHT22;392;48.838;2.322;2024-03-08T08:30:04;8.50;33.20
820;DHT22;392;48.838;2.322;2024-03-08T08:32:34;8.50;32.30
820;DHT22;392;48.838;2.322;2024-03-08T08:35:03;8.50;32.00
820;DHT22;392;48.838;2.322;2024-03-08T08:37:32;8.50;32.10
820;DHT22;392;48.838;2.322;2024-03-08T08:40:01;8.50;32.20
820;DHT22;392;48.838;2.322;2024-03-08T08:42:34;8.70;31.60
820;DHT22;392;48.838;2.322;2024-03-08T08:45:04;8.70;32.10
820;DHT22;392;48.838;2.322;2024-03-08T08:47:34;8.70;31.80
820;DHT22;392;48.838;2.322;2024-03-08T08:50:01;8.90;31.90
820;DHT22;392;48.838;2.322;2024-03-08T08:52:29;9.00;31.50
820;DHT22;392;48.838;2.322;2024-03-08T08:54:58;9.10;30.90
820;DHT22;392;48.838;2.322;2024-03-08T08:57:26;9.20;30.30
820;DHT22;392;48.838;2.322;2024-03-08T08:59:54;9.20;30.20
820;DHT22;392;48.838;2.322;2024-03-08T09:02:21;9.40;30.00
820;DHT22;392;48.838;2.322;2024-03-08T09:04:48;9.40;29.50
820;DHT22;392;48.838;2.322;2024-03-08T09:07:16;9.50;29.60
820;DHT22;392;48.838;2.322;2024-03-08T09:09:44;9.60;29.70
820;DHT22;392;48.838;2.322;2024-03-08T09:12:13;9.70;29.20
820;DHT22;392;48.838;2.322;2024-03-08T09:14:40;9.80;28.80
820;DHT22;392;48.838;2.322;2024-03-08T09:17:08;9.90;28.70
820;DHT22;392;48.838;2.322;2024-03-08T09:19:35;10.00;27.80
820;DHT22;392;48.838;2.322;2024-03-08T09:22:03;10.10;27.60
820;DHT22;392;48.838;2.322;2024-03-08T09:24:30;10.20;27.30
820;DHT22;392;48.838;2.322;2024-03-08T09:26:58;10.30;27.20
820;DHT22;392;48.838;2.322;2024-03-08T09:29:26;10.40;27.10
820;DHT22;392;48.838;2.322;2024-03-08T09:31:54;10.50;26.80
820;DHT22;392;48.838;2.322;2024-03-08T09:34:21;10.60;26.50
820;DHT22;392;48.838;2.322;2024-03-08T09:36:49;10.80;26.20
820;DHT22;392;48.838;2.322;2024-03-08T09:39:17;10.90;25.90
820;DHT22;392;48.838;2.322;2024-03-08T09:41:46;11.10;25.50
820;DHT22;392;48.838;2.322;2024-03-08T09:44:14;11.30;24.90
820;DHT22;392;48.838;2.322;2024-03-08T09:46:43;11.40;24.30
820;DHT22;392;48.838;2.322;2024-03-08T09:49:12;11.40;24.10
820;DHT22;392;48.838;2.322;2024-03-08T09:51:40;11.40;24.10
820;DHT22;392;48.838;2.322;2024-03-08T09:54:07;11.50;24.00
820;DHT22;392;48.838;2.322;2024-03-08T09:56:35;11.50;23.60
820;DHT22;392;48.838;2.322;2024-03-08T09:59:02;11.50;23.30
820;DHT22;392;48.838;2.322;2024-03-08T10:01:48;11.50;23.30
820;DHT22;392;48.838;2.322;2024-03-08T10:04:17;11.40;23.40
820;DHT22;392;48.838;2.322;2024-03-08T10:06:45;11.40;23.40
820;DHT22;392;48.838;2.322;2024-03-08T10:09:13;11.40;23.50
820;DHT22;392;48.838;2.322;2024-03-08T10:11:41;11.50;23.70
820;DHT22;392;48.838;2.322;2024-03-08T10:14:09;11.50;23.80
820;DHT22;392;48.838;2.322;2024-03-08T10:16:37;11.60;23.80
820;DHT22;392;48.838;2.322;2024-03-08T10:19:06;11.70;23.40
820;DHT22;392;48.838;2.322;2024-03-08T10:21:35;11.70;23.40
820;DHT22;392;48.838;2.322;2024-03-08T10:24:03;11.90;23.60
820;DHT22;392;48.838;2.322;2024-03-08T10:26:30;11.90;23.00
820;DHT22;392;48.838;2.322;2024-03-08T10:28:57;12.00;23.10
820;DHT22;392;48.838;2.322;2024-03-08T10:31:25;12.10;23.20
820;DHT22;392;48.838;2.322;2024-03-08T10:33:52;12.30;22.90
820;DHT22;392;48.838;2.322;2024-03-08T10:36:21;12.40;22.80
820;DHT22;392;48.838;2.322;2024-03-08T10:38:51;12.50;22.80
820;DHT22;392;48.838;2.322;2024-03-08T10:41:21;12.60;22.10
820;DHT22;392;48.838;2.322;2024-03-08T10:44:02;12.60;22.00
820;DHT22;392;48.838;2.322;2024-03-08T10:46:46;12.60;22.20
820;DHT22;392;48.838;2.322;2024-03-08T10:49:26;12.60;22.60
820;DHT22;392;48.838;2.322;2024-03-08T10:52:03;12.80;22.80
820;DHT22;392;48.838;2.322;2024-03-08T10:54:34;13.00;22.40
820;DHT22;392;48.838;2.322;2024-03-08T10:57:05;13.20;22.50
820;DHT22;392;48.838;2.322;2024-03-08T10:59:35;13.50;20.90
820;DHT22;392;48.838;2.322;2024-03-08T11:02:02;13.60;20.70
820;DHT22;392;48.838;2.322;2024-03-08T11:04:31;13.60;20.80
820;DHT22;392;48.838;2.322;2024-03-08T11:07:00;13.70;20.40
820;DHT22;392;48.838;2.322;2024-03-08T11:09:32;13.80;20.60
820;DHT22;392;48.838;2.322;2024-03-08T11:12:22;13.90;20.20
820;DHT22;392;48.838;2.322;2024-03-08T11:14:53;14.20;20.20
820;DHT22;392;48.838;2.322;2024-03-08T11:17:21;14.50;20.20
820;DHT22;392;48.838;2.322;2024-03-08T11:19:49;14.80;19.80
820;DHT22;392;48.838;2.322;2024-03-08T11:22:28;15.10;19.20
820;DHT22;392;48.838;2.322;2024-03-08T11:24:58;15.60;18.30
820;DHT22;392;48.838;2.322;2024-03-08T11:27:29;15.80;17.40
820;DHT22;392;48.838;2.322;2024-03-08T11:30:00;15.90;17.00
820;DHT22;392;48.838;2.322;2024-03-08T11:32:35;16.10;17.10
820;DHT22;392;48.838;2.322;2024-03-08T11:35:06;16.80;17.40
820;DHT22;392;48.838;2.322;2024-03-08T11:37:35;17.50;15.20
820;DHT22;392;48.838;2.322;2024-03-08T11:40:12;18.40;14.80
820;DHT22;392;48.838;2.322;2024-03-08T11:42:44;19.60;12.60
820;DHT22;392;48.838;2.322;2024-03-08T11:45:13;20.70;11.80
820;DHT22;392;48.838;2.322;2024-03-08T11:47:42;22.10;9.40
820;DHT22;392;48.838;2.322;2024-03-08T11:50:12;23.10;6.90
820;DHT22;392;48.838;2.322;2024-03-08T11:52:41;23.70;6.30
820;DHT22;392;48.838;2.322;2024-03-08T11:55:08;24.10;5.30
820;DHT22;392;48.838;2.322;2024-03-08T11:57:36;24.40;5.30
820;DHT22;392;48.838;2.322;2024-03-08T12:00:04;25.00;4.20
820;DHT22;392;48.838;2.322;2024-03-08T12:02:34;25.40;3.00
820;DHT22;392;48.838;2.322;2024-03-08T12:05:04;25.30;2.50
820;DHT22;392;48.838;2.322;2024-03-08T12:07:35;25.10;3.10
820;DHT22;392;48.838;2.322;2024-03-08T12:10:17;24.90;2.70
820;DHT22;392;48.838;2.322;2024-03-08T12:12:46;24.30;3.60
820;DHT22;392;48.838;2.322;2024-03-08T12:15:14;24.00;3.80
820;DHT22;392;48.838;2.322;2024-03-08T12:17:43;24.10;3.80
820;DHT22;392;48.838;2.322;2024-03-08T12:20:15;24.30;3.10
820;DHT22;392;48.838;2.322;2024-03-08T12:22:44;24.00;3.70
820;DHT22;392;48.838;2.322;2024-03-08T12:25:12;23.90;4.00
820;DHT22;392;48.838;2.322;2024-03-08T12:27:41;24.10;3.70
820;DHT22;392;48.838;2.322;2024-03-08T12:30:19;24.00;3.50
820;DHT22;392;48.838;2.322;2024-03-08T12:32:52;23.60;3.40
820;DHT22;392;48.838;2.322;2024-03-08T12:35:23;22.90;4.40
820;DHT22;392;48.838;2.322;2024-03-08T12:37:52;23.30;4.70
820;DHT22;392;48.838;2.322;2024-03-08T12:40:26;23.60;4.00
820;DHT22;392;48.838;2.322;2024-03-08T12:42:55;23.70;3.80
820;DHT22;392;48.838;2.322;2024-03-08T12:45:22;23.70;3.80
820;DHT22;392;48.838;2.322;2024-03-08T12:47:50;23.60;3.90
820;DHT22;392;48.838;2.322;2024-03-08T12:50:19;24.10;4.00
820;DHT22;392;48.838;2.322;2024-03-08T12:52:46;24.90;2.50
820;DHT22;392;48.838;2.322;2024-03-08T12:55:14;25.30;2.50
820;DHT22;392;48.838;2.322;2024-03-08T12:57:44;25.60;1.60
820;DHT22;392;48.838;2.322;2024-03-08T13:00:14;25.00;1.40
820;DHT22;392;48.838;2.322;2024-03-08T13:02:45;23.50;2.40
820;DHT22;392;48.838;2.322;2024-03-08T13:05:13;22.20;3.90
820;DHT22;392;48.838;2.322;2024-03-08T13:07:41;21.30;5.30
820;DHT22;392;48.838;2.322;2024-03-08T13:10:12;20.70;6.10
820;DHT22;392;48.838;2.322;2024-03-08T13:12:41;20.50;7.00
820;DHT22;392;48.838;2.322;2024-03-08T13:15:08;20.50;6.90
820;DHT22;392;48.838;2.322;2024-03-08T13:17:38;20.30;7.00
820;DHT22;392;48.838;2.322;2024-03-08T13:20:07;19.80;7.30
820;DHT22;392;48.838;2.322;2024-03-08T13:22:35;19.50;7.90
820;DHT22;392;48.838;2.322;2024-03-08T13:25:03;18.80;8.70
820;DHT22;392;48.838;2.322;2024-03-08T13:27:31;18.20;10.00
820;DHT22;392;48.838;2.322;2024-03-08T13:29:59;18.00;10.40
820;DHT22;392;48.838;2.322;2024-03-08T13:32:27;18.00;10.70
820;DHT22;392;48.838;2.322;2024-03-08T13:34:57;18.00;10.70
820;DHT22;392;48.838;2.322;2024-03-08T13:37:24;18.20;10.80
820;DHT22;392;48.838;2.322;2024-03-08T13:39:52;18.60;10.30
820;DHT22;392;48.838;2.322;2024-03-08T13:42:19;19.00;10.00
820;DHT22;392;48.838;2.322;2024-03-08T13:44:48;19.10;9.20
820;DHT22;392;48.838;2.322;2024-03-08T13:47:16;19.20;9.40
820;DHT22;392;48.838;2.322;2024-03-08T13:49:44;19.20;9.30
820;DHT22;392;48.838;2.322;2024-03-08T13:52:13;18.90;9.20
820;DHT22;392;48.838;2.322;2024-03-08T13:54:40;18.80;9.30
820;DHT22;392;48.838;2.322;2024-03-08T13:57:08;18.60;9.40
820;DHT22;392;48.838;2.322;2024-03-08T13:59:35;18.30;9.70
820;DHT22;392;48.838;2.322;2024-03-08T14:02:04;18.00;9.90
820;DHT22;392;48.838;2.322;2024-03-08T14:04:31;18.00;10.20
820;DHT22;392;48.838;2.322;2024-03-08T14:06:58;17.80;10.20
820;DHT22;392;48.838;2.322;2024-03-08T14:09:30;17.70;10.50
820;DHT22;392;48.838;2.322;2024-03-08T14:11:57;17.60;10.50
820;DHT22;392;48.838;2.322;2024-03-08T14:14:25;17.30;10.90
820;DHT22;392;48.838;2.322;2024-03-08T14:16:52;16.90;11.50
820;DHT22;392;48.838;2.322;2024-03-08T14:19:21;16.80;12.00
820;DHT22;392;48.838;2.322;2024-03-08T14:21:48;16.80;12.30
820;DHT22;392;48.838;2.322;2024-03-08T14:24:17;16.80;12.40
820;DHT22;392;48.838;2.322;2024-03-08T14:26:45;16.90;12.50
820;DHT22;392;48.838;2.322;2024-03-08T14:29:14;17.00;11.90
820;DHT22;392;48.838;2.322;2024-03-08T14:31:41;17.20;11.50
820;DHT22;392;48.838;2.322;2024-03-08T14:34:09;17.30;11.30
820;DHT22;392;48.838;2.322;2024-03-08T14:36:36;17.40;11.20
820;DHT22;392;48.838;2.322;2024-03-08T14:39:04;17.60;11.20
820;DHT22;392;48.838;2.322;2024-03-08T14:41:33;17.70;11.30
820;DHT22;392;48.838;2.322;2024-03-08T14:44:01;17.80;11.00
820;DHT22;392;48.838;2.322;2024-03-08T14:46:28;17.80;10.50
820;DHT22;392;48.838;2.322;2024-03-08T14:48:56;17.80;10.80
820;DHT22;392;48.838;2.322;2024-03-08T14:51:23;17.60;10.80
820;DHT22;392;48.838;2.322;2024-03-08T14:53:52;17.30;11.30
820;DHT22;392;48.838;2.322;2024-03-08T14:56:20;17.20;11.40
820;DHT22;392;48.838;2.322;2024-03-08T14:58:48;17.10;11.60
820;DHT22;392;48.838;2.322;2024-03-08T15:01:18;17.00;11.60
820;DHT22;392;48.838;2.322;2024-03-08T15:03:50;16.90;11.90
820;DHT22;392;48.838;2.322;2024-03-08T15:06:17;16.70;12.00
820;DHT22;392;48.838;2.322;2024-03-08T15:08:47;16.80;12.30
820;DHT22;392;48.838;2.322;2024-03-08T15:11:14;16.70;12.40
820;DHT22;392;48.838;2.322;2024-03-08T15:13:47;16.50;12.30
820;DHT22;392;48.838;2.322;2024-03-08T15:16:18;16.50;12.70
820;DHT22;392;48.838;2.322;2024-03-08T15:18:49;16.50;13.10
820;DHT22;392;48.838;2.322;2024-03-08T15:21:17;16.60;12.90
820;DHT22;392;48.838;2.322;2024-03-08T15:23:45;16.60;12.50
820;DHT22;392;48.838;2.322;2024-03-08T15:26:16;16.60;12.50
820;DHT22;392;48.838;2.322;2024-03-08T15:28:44;16.60;12.70
820;DHT22;392;48.838;2.322;2024-03-08T15:31:13;16.50;12.80
820;DHT22;392;48.838;2.322;2024-03-08T15:33:42;16.50;12.70
820;DHT22;392;48.838;2.322;2024-03-08T15:36:10;16.50;12.80
820;DHT22;392;48.838;2.322;2024-03-08T15:38:41;16.40;12.50
820;DHT22;392;48.838;2.322;2024-03-08T15:41:09;16.30;12.90
820;DHT22;392;48.838;2.322;2024-03-08T15:43:39;16.20;12.90
820;DHT22;392;48.838;2.322;2024-03-08T15:46:07;16.00;13.10
820;DHT22;392;48.838;2.322;2024-03-08T15:48:37;15.90;13.20
820;DHT22;392;48.838;2.322;2024-03-08T15:51:07;15.90;13.50
820;DHT22;392;48.838;2.322;2024-03-08T15:53:36;15.80;13.70
820;DHT22;392;48.838;2.322;2024-03-08T15:56:04;15.70;13.60
820;DHT22;392;48.838;2.322;2024-03-08T15:58:33;15.50;13.60
820;DHT22;392;48.838;2.322;2024-03-08T16:01:01;15.50;14.00
820;DHT22;392;48.838;2.322;2024-03-08T16:03:32;15.50;14.00
820;DHT22;392;48.838;2.322;2024-03-08T16:05:59;15.40;14.20
820;DHT22;392;48.838;2.322;2024-03-08T16:08:31;15.40;14.40
820;DHT22;392;48.838;2.322;2024-03-08T16:11:02;15.40;14.40
820;DHT22;392;48.838;2.322;2024-03-08T16:13:33;15.50;14.30
820;DHT22;392;48.838;2.322;2024-03-08T16:16:04;15.40;14.50
820;DHT22;392;48.838;2.322;2024-03-08T16:18:31;15.40;14.60
820;DHT22;392;48.838;2.322;2024-03-08T16:21:00;15.40;14.80
820;DHT22;392;48.838;2.322;2024-03-08T16:23:31;15.40;14.80
820;DHT22;392;48.838;2.322;2024-03-08T16:25:58;15.30;14.70
820;DHT22;392;48.838;2.322;2024-03-08T16:28:25;15.30;15.00
820;DHT22;392;48.838;2.322;2024-03-08T16:30:54;15.30;15.20
820;DHT22;392;48.838;2.322;2024-03-08T16:33:21;15.30;15.30
820;DHT22;392;48.838;2.322;2024-03-08T16:35:49;15.40;15.20
820;DHT22;392;48.838;2.322;2024-03-08T16:38:17;15.40;15.20
820;DHT22;392;48.838;2.322;2024-03-08T16:40:49;15.40;14.90
820;DHT22;392;48.838;2.322;2024-03-08T16:43:18;15.30;15.00
820;DHT22;392;48.838;2.322;2024-03-08T16:45:47;15.20;15.10
820;DHT22;392;48.838;2.322;2024-03-08T16:48:16;15.20;15.10
820;DHT22;392;48.838;2.322;2024-03-08T16:50:44;15.10;15.10
820;DHT22;392;48.838;2.322;2024-03-08T16:53:11;15.10;15.40
820;DHT22;392;48.838;2.322;2024-03-08T16:55:39;15.00;15.50